createdAt,value
2022-09-22T00:01:20.110Z,0.5125
2022-09-22T00:04:16.343Z,0.35
2022-09-22T00:07:17.064Z,0.3625
2022-09-22T00:11:19.950Z,0.475
2022-09-22T00:14:19.499Z,0.2875
2022-09-22T00:17:16.298Z,0.45
2022-09-22T00:21:18.032Z,0.6000000000000001
2022-09-22T00:24:18.062Z,0.3
2022-09-22T00:27:16.080Z,0.5249999999999999
2022-09-22T00:31:20.232Z,0.3125
2022-09-22T00:34:21.136Z,0.75
2022-09-22T00:37:17.146Z,0.5874999999999999
2022-09-22T00:41:19.743Z,0.5625
2022-09-22T00:44:52.123Z,0.8500000000000001
2022-09-22T00:47:36.376Z,0.5
2022-09-22T00:51:23.646Z,0.4125
2022-09-22T00:54:19.080Z,0.5375
2022-09-22T00:57:21.589Z,0.36250000000000004
2022-09-22T01:01:17.738Z,0.35
2022-09-22T01:04:17.625Z,0.32499999999999996
2022-09-22T01:07:18.118Z,0.30000000000000004
2022-09-22T01:11:17.022Z,0.35
2022-09-22T01:14:27.329Z,0.9374999999999999
2022-09-22T01:17:26.763Z,0.4
2022-09-22T01:21:33.245Z,0.275
2022-09-22T01:25:22.113Z,0.2375
2022-09-22T01:28:04.505Z,0.5625
2022-09-22T01:31:22.948Z,0.7375
2022-09-22T01:34:26.188Z,0.5125
2022-09-22T01:37:22.835Z,0.41250000000000003
2022-09-22T01:41:33.146Z,0.5125
2022-09-22T01:44:22.848Z,0.4625
2022-09-22T01:47:20.100Z,0.2875
2022-09-22T01:51:19.224Z,0.3375
2022-09-22T01:54:23.462Z,0.22499999999999998
2022-09-22T01:57:22.831Z,0.2375
2022-09-22T02:01:19.768Z,0.2625
2022-09-22T02:04:24.365Z,0.6375
2022-09-22T02:07:22.478Z,0.275
2022-09-22T02:11:16.570Z,0.375
2022-09-22T02:14:16.512Z,0.525
2022-09-22T02:17:16.605Z,0.5
2022-09-22T02:21:17.630Z,0.2375
2022-09-22T02:24:35.146Z,0.675
2022-09-22T02:27:20.243Z,0.4
2022-09-22T02:31:20.430Z,0.5125
2022-09-22T02:34:16.934Z,0.5
2022-09-22T02:37:24.217Z,0.2
2022-09-22T02:41:21.694Z,0.2375
2022-09-22T02:44:21.154Z,0.5625
2022-09-22T02:47:22.662Z,0.45
2022-09-22T02:51:18.070Z,0.4625
2022-09-22T02:54:16.847Z,0.725
2022-09-22T02:57:16.592Z,0.35
2022-09-22T03:01:18.234Z,0.525
2022-09-22T03:04:18.487Z,0.55
2022-09-22T03:07:18.846Z,0.45
2022-09-22T03:11:15.684Z,0.275
2022-09-22T03:14:15.987Z,0.5
2022-09-22T03:17:16.137Z,0.35
2022-09-22T03:21:16.610Z,0.5625
2022-09-22T03:24:16.977Z,0.2
2022-09-22T03:27:17.138Z,0.3125
2022-09-22T03:31:16.235Z,0.4625
2022-09-22T03:34:16.758Z,0.1
2022-09-22T03:37:16.946Z,0.9624999999999999
2022-09-22T03:41:15.936Z,0.3
2022-09-22T03:44:16.262Z,0.28750000000000003
2022-09-22T03:47:16.786Z,0.425
2022-09-22T03:51:16.252Z,0.35
2022-09-22T03:54:16.460Z,0.4125
2022-09-22T03:57:16.306Z,0.0875
2022-09-22T04:01:16.756Z,0.5125
2022-09-22T04:04:17.206Z,0.575
2022-09-22T04:07:16.803Z,0.32499999999999996
2022-09-22T04:11:16.181Z,0.3
2022-09-22T04:14:17.739Z,0.325
2022-09-22T04:17:16.878Z,0.4625
2022-09-22T04:21:16.414Z,0.5125
2022-09-22T04:24:17.247Z,0.75
2022-09-22T04:27:21.077Z,0.35
2022-09-22T04:31:20.657Z,0.7749999999999999
2022-09-22T04:34:18.054Z,0.3
2022-09-22T04:37:16.507Z,0.3625
2022-09-22T04:41:15.893Z,0.175
2022-09-22T04:44:16.250Z,0.4125
2022-09-22T04:47:16.901Z,0.3875
2022-09-22T04:51:16.898Z,1.275
2022-09-22T04:54:17.068Z,0.36250000000000004
2022-09-22T04:57:20.418Z,0.275
2022-09-22T05:01:16.901Z,0.35
2022-09-22T05:04:18.271Z,0.375
2022-09-22T05:07:17.101Z,0.425
2022-09-22T05:11:15.990Z,0.45
2022-09-22T05:14:19.738Z,0.4625
2022-09-22T05:17:17.718Z,0.26249999999999996
2022-09-22T05:21:18.062Z,0.48750000000000004
2022-09-22T05:24:16.286Z,0.4875
2022-09-22T05:27:16.461Z,0.5875
2022-09-22T05:31:16.565Z,0.375
2022-09-22T05:34:17.110Z,0.4375
2022-09-22T05:37:17.129Z,0.475
2022-09-22T05:41:16.161Z,0.5874999999999999
2022-09-22T05:44:16.444Z,1.05
2022-09-22T05:47:16.390Z,0.6625
2022-09-22T05:51:16.495Z,1.1
2022-09-22T05:54:21.254Z,0.7000000000000001
2022-09-22T05:57:17.376Z,0.6125
2022-09-22T06:01:16.273Z,0.5625
2022-09-22T06:04:16.343Z,0.725
2022-09-22T06:07:16.874Z,0.7125
2022-09-22T06:11:16.360Z,0.85
2022-09-22T06:14:16.345Z,0.7875000000000001
2022-09-22T06:17:16.797Z,0.6625
2022-09-22T06:21:17.236Z,0.425
2022-09-22T06:24:16.335Z,0.525
2022-09-22T06:27:16.442Z,0.35000000000000003
2022-09-22T06:31:16.708Z,0.825
2022-09-22T06:34:18.058Z,0.3875
2022-09-22T06:37:17.148Z,0.6875
2022-09-22T06:41:17.039Z,0.4375
2022-09-22T06:44:17.000Z,1.4375
2022-09-22T06:47:16.913Z,0.5
2022-09-22T06:51:16.981Z,0.575
2022-09-22T06:54:17.488Z,0.7250000000000001
2022-09-22T06:57:17.607Z,0.75
2022-09-22T07:01:17.009Z,0.6124999999999999
2022-09-22T07:04:17.702Z,0.625
2022-09-22T07:07:17.435Z,0.4375
2022-09-22T07:11:18.503Z,0.6125
2022-09-22T07:14:20.333Z,0.47500000000000003
2022-09-22T07:17:17.181Z,0.875
2022-09-22T07:21:18.728Z,0.7875
2022-09-22T07:24:16.760Z,1.7625000000000002
2022-09-22T07:27:23.609Z,1.9
2022-09-22T07:31:17.193Z,1.2750000000000001
2022-09-22T07:34:18.783Z,1.7125
2022-09-22T07:37:17.455Z,0.875
2022-09-22T07:41:19.114Z,1.025
2022-09-22T07:45:22.964Z,0.7625000000000001
2022-09-22T07:48:37.237Z,0.575
2022-09-22T07:51:21.598Z,0.45
2022-09-22T07:54:16.475Z,0.675
2022-09-22T07:57:16.502Z,0.35000000000000003
2022-09-22T08:01:18.171Z,0.45000000000000007
2022-09-22T08:04:19.090Z,0.5
2022-09-22T08:07:16.778Z,0.2875
2022-09-22T08:11:18.679Z,0.2625
2022-09-22T08:14:17.492Z,0.55
2022-09-22T08:17:17.455Z,0.4375
2022-09-22T08:21:19.596Z,0.2625
2022-09-22T08:24:19.143Z,0.3125
2022-09-22T08:27:16.830Z,0.55
2022-09-22T08:31:18.937Z,0.275
2022-09-22T08:34:17.777Z,0.3125
2022-09-22T08:37:16.456Z,0.6375
2022-09-22T08:41:26.641Z,0.45
2022-09-22T08:44:22.673Z,0.3125
2022-09-22T08:47:19.529Z,0.6625
2022-09-22T08:52:31.077Z,0.5
2022-09-22T08:54:18.022Z,0.4625
2022-09-22T08:57:36.203Z,0.32499999999999996
2022-09-22T09:01:47.096Z,0.42500000000000004
2022-09-22T09:04:50.181Z,0.4375
2022-09-22T09:07:29.607Z,0.575
2022-09-22T09:11:25.187Z,0.8625
2022-09-22T09:14:33.248Z,0.3125
2022-09-22T09:17:23.432Z,0.6
2022-09-22T09:21:16.204Z,0.30000000000000004
2022-09-22T09:27:20.290Z,0.3
2022-09-22T09:31:26.493Z,0.9625
2022-09-22T09:34:22.091Z,0.35
2022-09-22T09:37:23.507Z,0.3875
2022-09-22T09:41:21.105Z,0.8500000000000001
2022-09-22T09:44:20.838Z,0.8625
2022-09-22T09:47:33.639Z,0.2875
2022-09-22T09:51:20.094Z,0.5375000000000001
2022-09-22T09:54:20.092Z,0.35
2022-09-22T09:57:27.642Z,0.5499999999999999
2022-09-22T10:01:17.033Z,0.675
2022-09-22T10:04:30.103Z,0.42500000000000004
2022-09-22T10:07:20.267Z,0.5375000000000001
2022-09-22T10:11:28.483Z,0.5249999999999999
2022-09-22T10:14:19.146Z,0.6499999999999999
2022-09-22T10:17:20.711Z,0.375
2022-09-22T10:21:18.377Z,0.625
2022-09-22T10:24:29.582Z,0.6375
2022-09-22T10:27:20.703Z,0.5125
2022-09-22T10:31:27.557Z,0.775
2022-09-22T10:34:29.549Z,0.45
2022-09-22T10:37:24.621Z,0.7124999999999999
2022-09-22T10:41:19.215Z,0.7
2022-09-22T10:44:40.194Z,0.5
2022-09-22T10:47:27.312Z,0.6875
2022-09-22T10:51:29.093Z,0.7875000000000001
2022-09-22T10:54:27.528Z,0.525
2022-09-22T10:57:30.074Z,0.4875
2022-09-22T11:01:35.020Z,0.7125
2022-09-22T11:04:41.657Z,0.3625
2022-09-22T11:12:32.665Z,0.8625
2022-09-22T11:15:02.379Z,0.575
2022-09-22T11:17:28.534Z,0.6625
2022-09-22T11:21:30.148Z,0.925
2022-09-22T11:24:35.066Z,0.85
2022-09-22T11:27:25.158Z,0.7125
2022-09-22T11:32:00.996Z,0.55
2022-09-22T11:34:36.373Z,0.5125
2022-09-22T11:37:39.570Z,0.5125
2022-09-22T11:41:26.190Z,0.6875
2022-09-22T11:44:50.781Z,0.5875
2022-09-22T11:47:34.351Z,0.7
2022-09-22T11:51:57.922Z,0.8625
2022-09-22T11:54:33.168Z,1.0375
2022-09-22T11:57:20.401Z,0.5625
2022-09-22T12:01:32.547Z,0.6499999999999999
2022-09-22T12:04:24.921Z,0.6625
2022-09-22T12:07:23.654Z,0.8125
2022-09-22T12:11:20.798Z,0.6125
2022-09-22T12:14:19.061Z,0.5
2022-09-22T12:17:23.968Z,0.5499999999999999
2022-09-22T12:21:36.742Z,0.7375
2022-09-22T12:24:16.485Z,0.5375
2022-09-22T12:27:22.063Z,0.5625
2022-09-22T12:31:18.108Z,0.625
2022-09-22T12:34:20.877Z,0.4875
2022-09-22T12:37:28.937Z,0.775
2022-09-22T12:41:18.579Z,0.7875000000000001
2022-09-22T12:44:22.420Z,0.7
2022-09-22T12:47:23.437Z,0.7625
2022-09-22T12:51:32.737Z,1.075
2022-09-22T12:54:37.133Z,0.8125
2022-09-22T12:57:24.345Z,0.575
2022-09-22T13:01:33.853Z,0.55
2022-09-22T13:04:18.496Z,0.48750000000000004
2022-09-22T13:07:34.851Z,0.7375
2022-09-22T13:11:17.835Z,0.5874999999999999
2022-09-22T13:14:59.827Z,0.7875
2022-09-22T13:17:39.429Z,0.8125
2022-09-22T13:21:22.242Z,0.725
2022-09-22T13:24:18.610Z,0.6875
2022-09-22T13:27:45.482Z,0.425
2022-09-22T13:31:17.023Z,0.6625
2022-09-22T13:34:19.475Z,0.4375
2022-09-22T13:37:20.069Z,0.375
2022-09-22T13:41:20.412Z,0.525
2022-09-22T13:44:23.074Z,0.8125
2022-09-22T13:47:21.235Z,0.8625
2022-09-22T13:51:17.163Z,0.9125
2022-09-22T13:54:22.450Z,0.6375
2022-09-22T13:57:21.235Z,0.625
2022-09-22T14:01:19.575Z,0.6625
2022-09-22T14:04:21.790Z,0.875
2022-09-22T14:07:18.479Z,0.475
2022-09-22T14:11:19.245Z,0.8
2022-09-22T14:14:22.222Z,0.9125
2022-09-22T14:17:20.316Z,1.1124999999999998
2022-09-22T14:21:17.138Z,0.9125
2022-09-22T14:24:17.558Z,0.5125
2022-09-22T14:27:22.867Z,0.7625
2022-09-22T14:31:24.330Z,0.6499999999999999
2022-09-22T14:34:21.364Z,0.6875
2022-09-22T14:37:23.974Z,0.75
2022-09-22T14:41:21.941Z,0.7125
2022-09-22T14:44:38.689Z,0.45
2022-09-22T14:47:26.732Z,0.6375
2022-09-22T14:51:18.737Z,0.6624999999999999
2022-09-22T14:54:16.980Z,0.6625000000000001
2022-09-22T14:57:17.121Z,0.8374999999999999
2022-09-22T15:11:17.390Z,0.725
2022-09-22T15:14:39.776Z,0.65
2022-09-22T15:18:21.813Z,0.85
2022-09-22T15:21:17.008Z,0.46249999999999997
2022-09-22T15:24:21.741Z,0.875
2022-09-22T15:27:18.300Z,0.5249999999999999
2022-09-22T15:31:17.615Z,0.8625
2022-09-22T15:34:17.000Z,0.7875000000000001
2022-09-22T15:37:19.767Z,0.95
2022-09-22T15:41:17.442Z,1.05
2022-09-22T15:44:17.333Z,0.7875
2022-09-22T15:47:17.457Z,0.825
2022-09-22T15:51:15.780Z,1.3875
2022-09-22T15:54:17.919Z,1.8
2022-09-22T15:57:17.250Z,0.925
2022-09-22T16:01:17.829Z,1.025
2022-09-22T16:04:17.429Z,1.375
2022-09-22T16:07:16.875Z,1.3624999999999998
2022-09-22T16:11:19.255Z,1.5125
2022-09-22T16:14:16.785Z,1.35
2022-09-22T16:17:16.482Z,1.5875
2022-09-22T16:21:20.978Z,1.875
2022-09-22T16:24:17.049Z,1.7625
2022-09-22T16:27:16.690Z,1.3
2022-09-22T16:31:19.338Z,1.6749999999999998
2022-09-22T16:34:18.754Z,1.1
2022-09-22T16:37:19.158Z,1.0750000000000002
2022-09-22T16:41:19.957Z,0.95
2022-09-22T16:44:16.286Z,0.9875
2022-09-22T16:47:23.327Z,0.925
2022-09-22T16:51:18.532Z,1.0375
2022-09-22T16:54:17.666Z,1.0375
2022-09-22T16:57:16.683Z,0.8875000000000001
2022-09-22T17:01:19.872Z,0.7875000000000001
2022-09-22T17:04:17.644Z,0.65
2022-09-22T17:07:17.652Z,0.9624999999999999
2022-09-22T17:11:17.185Z,0.7124999999999999
2022-09-22T17:14:18.434Z,0.75
2022-09-22T17:17:16.909Z,0.675
2022-09-22T17:21:22.446Z,0.8625
2022-09-22T17:24:17.092Z,0.825
2022-09-22T17:27:17.340Z,0.6625
2022-09-22T17:31:15.750Z,0.8500000000000001
2022-09-22T17:34:16.999Z,1
2022-09-22T17:37:16.284Z,0.7625
2022-09-22T17:41:18.328Z,0.55
2022-09-22T17:44:21.846Z,0.48749999999999993
2022-09-22T18:01:19.341Z,1.05
2022-09-22T18:04:18.245Z,1.025
2022-09-22T18:07:20.376Z,0.46249999999999997
2022-09-22T18:11:16.726Z,0.7875000000000001
2022-09-22T18:14:16.527Z,1.0125
2022-09-22T18:17:19.360Z,1.0250000000000001
2022-09-22T18:21:17.406Z,0.8500000000000001
2022-09-22T18:24:19.637Z,1.3
2022-09-22T18:27:19.835Z,0.8875000000000001
2022-09-22T18:31:17.360Z,0.8625
2022-09-22T18:34:17.518Z,0.9125
2022-09-22T18:37:16.505Z,0.7
2022-09-22T18:41:19.694Z,0.8625
2022-09-22T18:44:18.589Z,0.8125
2022-09-22T18:47:20.253Z,1.075
2022-09-22T18:51:16.292Z,0.7
2022-09-22T18:54:17.352Z,0.75
2022-09-22T18:57:16.926Z,0.6875
2022-09-22T19:01:18.866Z,0.9
2022-09-22T19:04:19.720Z,0.7
2022-09-22T19:07:49.052Z,0.49999999999999994
2022-09-22T19:11:17.999Z,1.0875
2022-09-22T19:14:18.010Z,0.9624999999999999
2022-09-22T19:17:17.343Z,2.0125
2022-09-22T19:21:17.006Z,4.3375
2022-09-22T19:24:17.265Z,3.1125
2022-09-22T19:27:17.826Z,1.4625000000000001
2022-09-22T19:31:16.730Z,1.1375
2022-09-22T19:34:17.620Z,0.625
2022-09-22T19:37:17.042Z,1.375
2022-09-22T19:41:16.817Z,1.1125
2022-09-22T19:44:20.819Z,0.825
2022-09-22T19:47:16.731Z,0.9750000000000001
2022-09-22T19:51:16.023Z,1.0125
2022-09-22T19:54:52.784Z,0.6
2022-09-22T19:57:17.304Z,1.1749999999999998
2022-09-22T20:01:28.206Z,1.0499999999999998
2022-09-22T20:04:18.803Z,1.0125
2022-09-22T20:07:17.212Z,1.5375
2022-09-22T20:11:26.003Z,0.8625
2022-09-22T20:14:24.376Z,1.2125000000000001
2022-09-22T20:17:16.865Z,0.9624999999999999
2022-09-22T20:21:15.693Z,1
2022-09-22T20:24:19.881Z,0.8250000000000001
2022-09-22T20:27:16.172Z,0.8500000000000001
2022-09-22T20:31:17.117Z,1.1625
2022-09-22T20:34:16.692Z,0.975
2022-09-22T20:37:16.874Z,0.9125000000000001
2022-09-22T20:41:19.709Z,0.8875000000000001
2022-09-22T20:44:16.806Z,0.7
2022-09-22T20:47:18.808Z,1.2625
2022-09-22T20:51:17.600Z,1.4249999999999998
2022-09-22T20:54:17.057Z,1.4625
2022-09-22T20:57:17.850Z,1.5375
2022-09-22T21:01:23.176Z,1.0125
2022-09-22T21:04:16.536Z,0.95
2022-09-22T21:07:16.299Z,1.3
2022-09-22T21:11:18.761Z,1.3125
2022-09-22T21:14:16.682Z,1.075
2022-09-22T21:17:18.452Z,1
2022-09-22T21:21:20.356Z,0.8
2022-09-22T21:24:17.223Z,1.2999999999999998
2022-09-22T21:27:17.199Z,0.9625000000000001
2022-09-22T21:31:16.956Z,1.1749999999999998
2022-09-22T21:34:17.420Z,0.7375
2022-09-22T21:37:16.766Z,0.8875
2022-09-22T21:41:18.079Z,1.1
2022-09-22T21:44:16.584Z,0.8
2022-09-22T21:47:16.151Z,0.975
2022-09-22T21:51:18.996Z,1.125
2022-09-22T21:54:18.030Z,0.8875
2022-09-22T21:57:16.280Z,1.1
2022-09-22T22:01:17.882Z,0.8875
2022-09-22T22:04:17.975Z,0.675
2022-09-22T22:07:17.402Z,1.1875
2022-09-22T22:11:18.646Z,0.8375000000000001
2022-09-22T22:14:18.512Z,0.8125
2022-09-22T22:17:16.521Z,0.6375
2022-09-22T22:21:19.503Z,0.8625
2022-09-22T22:24:28.788Z,0.625
2022-09-22T22:27:17.183Z,0.9125
2022-09-22T22:31:20.434Z,0.9375
2022-09-22T22:34:20.671Z,0.575
2022-09-22T22:37:19.025Z,0.5874999999999999
2022-09-22T22:41:16.292Z,0.825
2022-09-22T22:44:17.996Z,1.3375
2022-09-22T22:47:17.432Z,0.6
2022-09-22T22:51:18.816Z,0.45
2022-09-22T22:54:16.965Z,1.0375
2022-09-22T22:57:17.382Z,0.48750000000000004
2022-09-22T23:01:19.468Z,0.525
2022-09-22T23:04:17.108Z,0.525
2022-09-22T23:07:16.786Z,0.75
2022-09-22T23:11:18.480Z,0.45
2022-09-22T23:14:17.465Z,0.6625000000000001
2022-09-22T23:17:16.271Z,0.8375
2022-09-22T23:21:18.350Z,1
2022-09-22T23:24:17.306Z,0.475
2022-09-22T23:27:16.300Z,0.625
2022-09-22T23:31:18.539Z,0.6125
2022-09-22T23:34:16.223Z,0.9375
2022-09-22T23:37:16.342Z,0.475
2022-09-22T23:41:16.293Z,0.55
2022-09-22T23:44:16.357Z,0.7875000000000001
2022-09-22T23:47:16.916Z,1.0125000000000002
2022-09-22T23:51:16.619Z,0.7
2022-09-22T23:54:17.234Z,0.7250000000000001
2022-09-22T23:57:17.512Z,0.6499999999999999
